AEA55KB LEST-LEGE
Flight info
| Callsign | AEA55KB |
|---|---|
| Flight time | 1h 18m |
| Altitude | 24000 |
| Route | ROXER M190 LASKU/N0454F280 M190 BLV M601 REBUL L110 MAMUK |
| Aircraft | B738/M-SDE2E3FGHIRWXY/LB1 |
Departure
| Time | 2026-05-05 02:39 |
|---|---|
| Airport | Santiago-Rosalía de Castro Airport (LEST) |
Arrival
| Time | 2026-05-05 03:57 |
|---|---|
| Airport | Girona-Costa Brava Airport (LEGE) |
| Time | Latitude | Longitude | Altitude | Speed | Heading |
|---|---|---|---|---|---|
| 2026-05-05 02:31 | 42.89504 | -8.41702 | 1196 ft | 9 kts | 355° |
| 2026-05-05 02:31 | 42.89563 | -8.41721 | 1196 ft | 9 kts | 346° |
| 2026-05-05 02:32 | 42.89634 | -8.41745 | 1196 ft | 13 kts | 346° |
| 2026-05-05 02:32 | 42.89729 | -8.41777 | 1196 ft | 14 kts | 346° |
| 2026-05-05 02:32 | 42.89823 | -8.41808 | 1196 ft | 14 kts | 346° |
| 2026-05-05 02:32 | 42.89930 | -8.41844 | 1196 ft | 18 kts | 346° |
| 2026-05-05 02:33 | 42.90064 | -8.41889 | 1196 ft | 21 kts | 346° |
| 2026-05-05 02:33 | 42.90213 | -8.41940 | 1196 ft | 22 kts | 346° |
| 2026-05-05 02:33 | 42.90361 | -8.41989 | 1196 ft | 22 kts | 346° |
| 2026-05-05 02:33 | 42.90505 | -8.42037 | 1196 ft | 22 kts | 346° |
| 2026-05-05 02:34 | 42.90664 | -8.42091 | 1196 ft | 25 kts | 346° |
| 2026-05-05 02:34 | 42.90834 | -8.42149 | 1195 ft | 24 kts | 346° |
| 2026-05-05 02:34 | 42.90993 | -8.42202 | 1196 ft | 23 kts | 346° |
| 2026-05-05 02:34 | 42.91092 | -8.42233 | 1196 ft | 6 kts | 359° |
| 2026-05-05 02:35 | 42.91129 | -8.42213 | 1195 ft | 6 kts | 43° |
| 2026-05-05 02:35 | 42.91147 | -8.42149 | 1195 ft | 8 kts | 77° |
| 2026-05-05 02:35 | 42.91162 | -8.42061 | 1192 ft | 5 kts | 78° |
| 2026-05-05 02:35 | 42.91160 | -8.42030 | 1192 ft | 3 kts | 128° |
| 2026-05-05 02:36 | 42.91139 | -8.42019 | 1192 ft | 2 kts | 163° |
| 2026-05-05 02:36 | 42.91138 | -8.42018 | 1192 ft | 0 kts | 163° |
| 2026-05-05 02:38 | 42.91062 | -8.41990 | 1192 ft | 36 kts | 166° |
| 2026-05-05 02:38 | 42.90580 | -8.41830 | 1196 ft | 105 kts | 166° |
| 2026-05-05 02:38 | 42.89670 | -8.41528 | 1193 ft | 162 kts | 167° |
| 2026-05-05 02:38 | 42.88504 | -8.41159 | 1749 ft | 165 kts | 168° |
| 2026-05-05 02:39 | 42.87405 | -8.40775 | 2507 ft | 169 kts | 169° |
| 2026-05-05 02:39 | 42.86249 | -8.40381 | 3044 ft | 175 kts | 169° |
| 2026-05-05 02:39 | 42.85045 | -8.39967 | 3650 ft | 179 kts | 169° |
| 2026-05-05 02:39 | 42.83866 | -8.39443 | 4279 ft | 184 kts | 152° |
| 2026-05-05 02:40 | 42.82956 | -8.38173 | 4797 ft | 196 kts | 120° |
| 2026-05-05 02:40 | 42.82355 | -8.36381 | 5213 ft | 218 kts | 106° |
| 2026-05-05 02:40 | 42.82290 | -8.34243 | 5407 ft | 240 kts | 71° |
| 2026-05-05 02:40 | 42.83178 | -8.32325 | 5789 ft | 247 kts | 36° |
| 2026-05-05 02:41 | 42.84710 | -8.31168 | 6149 ft | 260 kts | 13° |
| 2026-05-05 02:41 | 42.86492 | -8.30588 | 6872 ft | 264 kts | 9° |
| 2026-05-05 02:41 | 42.88308 | -8.29953 | 7626 ft | 272 kts | 11° |
| 2026-05-05 02:41 | 42.90167 | -8.29266 | 8357 ft | 280 kts | 13° |
| 2026-05-05 02:42 | 42.92051 | -8.28603 | 9251 ft | 280 kts | 10° |
| 2026-05-05 02:42 | 42.93944 | -8.27990 | 10153 ft | 280 kts | 10° |
| 2026-05-05 02:42 | 42.95850 | -8.27254 | 10703 ft | 297 kts | 23° |
| 2026-05-05 02:42 | 42.97490 | -8.25340 | 10915 ft | 327 kts | 54° |
| 2026-05-05 02:43 | 42.98432 | -8.22471 | 11621 ft | 336 kts | 69° |
| 2026-05-05 02:43 | 42.99203 | -8.19393 | 12120 ft | 350 kts | 69° |
| 2026-05-05 02:43 | 43.00047 | -8.16158 | 12269 ft | 372 kts | 68° |
| 2026-05-05 02:43 | 43.00943 | -8.12788 | 12447 ft | 392 kts | 68° |
| 2026-05-05 02:44 | 43.01884 | -8.09240 | 12897 ft | 401 kts | 70° |
| 2026-05-05 02:44 | 43.02502 | -8.05508 | 13611 ft | 406 kts | 83° |
| 2026-05-05 02:44 | 43.02514 | -8.01641 | 14317 ft | 409 kts | 94° |
| 2026-05-05 02:44 | 43.02201 | -7.97764 | 14955 ft | 412 kts | 95° |
| 2026-05-05 02:45 | 43.01884 | -7.93855 | 15528 ft | 416 kts | 95° |
| 2026-05-05 02:45 | 43.01571 | -7.89901 | 16109 ft | 420 kts | 95° |
| 2026-05-05 02:45 | 43.01264 | -7.85916 | 16701 ft | 423 kts | 95° |
| 2026-05-05 02:45 | 43.00960 | -7.81904 | 17278 ft | 427 kts | 95° |
| 2026-05-05 02:46 | 43.00655 | -7.77851 | 17853 ft | 430 kts | 95° |
| 2026-05-05 02:46 | 43.00350 | -7.73763 | 18411 ft | 434 kts | 95° |
| 2026-05-05 02:46 | 43.00042 | -7.69650 | 18885 ft | 437 kts | 95° |
| 2026-05-05 02:46 | 42.99731 | -7.65502 | 19348 ft | 441 kts | 95° |
| 2026-05-05 02:47 | 42.99417 | -7.61322 | 19814 ft | 444 kts | 95° |
| 2026-05-05 02:47 | 42.99098 | -7.57111 | 20344 ft | 445 kts | 95° |
| 2026-05-05 02:47 | 42.98777 | -7.52898 | 20860 ft | 447 kts | 95° |
| 2026-05-05 02:47 | 42.98453 | -7.48660 | 21284 ft | 451 kts | 95° |
| 2026-05-05 02:48 | 42.98123 | -7.44371 | 21598 ft | 457 kts | 95° |
| 2026-05-05 02:48 | 42.97788 | -7.40027 | 21977 ft | 461 kts | 95° |
| 2026-05-05 02:48 | 42.97449 | -7.35661 | 22444 ft | 463 kts | 95° |
| 2026-05-05 02:48 | 42.97107 | -7.31281 | 22886 ft | 466 kts | 95° |
| 2026-05-05 02:49 | 42.96761 | -7.26872 | 23283 ft | 469 kts | 95° |
| 2026-05-05 02:49 | 42.96415 | -7.22491 | 23650 ft | 472 kts | 95° |
| 2026-05-05 02:49 | 42.96057 | -7.17969 | 24008 ft | 474 kts | 95° |
| 2026-05-05 02:49 | 42.95705 | -7.13545 | 24327 ft | 476 kts | 95° |
| 2026-05-05 02:50 | 42.95338 | -7.08970 | 24601 ft | 480 kts | 95° |
| 2026-05-05 02:50 | 42.94978 | -7.04490 | 24887 ft | 483 kts | 95° |
| 2026-05-05 02:50 | 42.94608 | -6.99921 | 25161 ft | 486 kts | 95° |
| 2026-05-05 02:50 | 42.94237 | -6.95358 | 25762 ft | 477 kts | 95° |
| 2026-05-05 02:51 | 42.93879 | -6.91002 | 27053 ft | 451 kts | 95° |
| 2026-05-05 02:51 | 42.93532 | -6.86780 | 27759 ft | 447 kts | 95° |
| 2026-05-05 02:51 | 42.93183 | -6.82546 | 28092 ft | 451 kts | 96° |
| 2026-05-05 02:52 | 42.92465 | -6.73875 | 28087 ft | 468 kts | 96° |
| 2026-05-05 02:52 | 42.91715 | -6.64897 | 28074 ft | 483 kts | 96° |
| 2026-05-05 02:53 | 42.90935 | -6.55677 | 28081 ft | 495 kts | 96° |
| 2026-05-05 02:53 | 42.90131 | -6.46282 | 28069 ft | 499 kts | 96° |
| 2026-05-05 02:54 | 42.89321 | -6.36890 | 28074 ft | 498 kts | 96° |
| 2026-05-05 02:54 | 42.88504 | -6.27513 | 28060 ft | 497 kts | 96° |
| 2026-05-05 02:55 | 42.87681 | -6.18163 | 28063 ft | 496 kts | 96° |
| 2026-05-05 02:55 | 42.86852 | -6.08819 | 28075 ft | 496 kts | 96° |
| 2026-05-05 02:56 | 42.86029 | -5.99633 | 28029 ft | 477 kts | 97° |
| 2026-05-05 02:56 | 42.85230 | -5.90795 | 28065 ft | 474 kts | 97° |
| 2026-05-05 02:57 | 42.84404 | -5.81746 | 28058 ft | 488 kts | 97° |
| 2026-05-05 02:57 | 42.83548 | -5.72452 | 28050 ft | 501 kts | 97° |
| 2026-05-05 02:58 | 42.82670 | -5.62995 | 28035 ft | 503 kts | 98° |
| 2026-05-05 02:58 | 42.81785 | -5.53556 | 28047 ft | 501 kts | 98° |
| 2026-05-05 02:59 | 42.80895 | -5.44143 | 28039 ft | 500 kts | 98° |
| 2026-05-05 02:59 | 42.80000 | -5.34761 | 28035 ft | 499 kts | 98° |
| 2026-05-05 03:00 | 42.79098 | -5.25392 | 28043 ft | 499 kts | 98° |
| 2026-05-05 03:00 | 42.78188 | -5.16022 | 28046 ft | 499 kts | 98° |
| 2026-05-05 03:01 | 42.77270 | -5.06661 | 28052 ft | 499 kts | 98° |
| 2026-05-05 03:01 | 42.76346 | -4.97304 | 28029 ft | 500 kts | 99° |
| 2026-05-05 03:02 | 42.75412 | -4.87932 | 28031 ft | 499 kts | 99° |
| 2026-05-05 03:02 | 42.74472 | -4.78576 | 28030 ft | 499 kts | 99° |
| 2026-05-05 03:03 | 42.73524 | -4.69222 | 28036 ft | 499 kts | 99° |
| 2026-05-05 03:03 | 42.72577 | -4.59951 | 28033 ft | 498 kts | 99° |
| 2026-05-05 03:04 | 42.71616 | -4.50623 | 28022 ft | 497 kts | 100° |
| 2026-05-05 03:04 | 42.70649 | -4.41315 | 28025 ft | 497 kts | 100° |
| 2026-05-05 03:05 | 42.69677 | -4.32031 | 28030 ft | 496 kts | 100° |
| 2026-05-05 03:05 | 42.68696 | -4.22742 | 28030 ft | 496 kts | 100° |
| 2026-05-05 03:06 | 42.67710 | -4.13473 | 28031 ft | 496 kts | 100° |
| 2026-05-05 03:06 | 42.66716 | -4.04201 | 28027 ft | 495 kts | 100° |
| 2026-05-05 03:07 | 42.65715 | -3.94939 | 28014 ft | 495 kts | 100° |
| 2026-05-05 03:07 | 42.64708 | -3.85692 | 28027 ft | 495 kts | 100° |
| 2026-05-05 03:08 | 42.63694 | -3.76448 | 28018 ft | 495 kts | 101° |
| 2026-05-05 03:08 | 42.62679 | -3.67269 | 28011 ft | 495 kts | 101° |
| 2026-05-05 03:09 | 42.61649 | -3.58028 | 28013 ft | 494 kts | 101° |
| 2026-05-05 03:09 | 42.60613 | -3.48798 | 28014 ft | 494 kts | 101° |
| 2026-05-05 03:10 | 42.59570 | -3.39581 | 27999 ft | 494 kts | 101° |
| 2026-05-05 03:10 | 42.58520 | -3.30362 | 28021 ft | 494 kts | 102° |
| 2026-05-05 03:11 | 42.57460 | -3.21129 | 28024 ft | 496 kts | 102° |
| 2026-05-05 03:11 | 42.56389 | -3.11873 | 28017 ft | 497 kts | 102° |
| 2026-05-05 03:12 | 42.55309 | -3.02600 | 28013 ft | 499 kts | 102° |
| 2026-05-05 03:12 | 42.54217 | -2.93291 | 28028 ft | 501 kts | 102° |
| 2026-05-05 03:13 | 42.53114 | -2.83954 | 28021 ft | 502 kts | 102° |
| 2026-05-05 03:13 | 42.52000 | -2.74598 | 28013 ft | 503 kts | 102° |
| 2026-05-05 03:14 | 42.50878 | -2.65237 | 27995 ft | 503 kts | 103° |
| 2026-05-05 03:14 | 42.50315 | -2.60560 | 27999 ft | 503 kts | 103° |
| 2026-05-05 03:14 | 42.49757 | -2.55946 | 27999 ft | 502 kts | 103° |
| 2026-05-05 03:14 | 42.49190 | -2.51276 | 27990 ft | 502 kts | 103° |
| 2026-05-05 03:15 | 42.48622 | -2.46608 | 27997 ft | 502 kts | 103° |
| 2026-05-05 03:15 | 42.48052 | -2.41944 | 27991 ft | 502 kts | 103° |
| 2026-05-05 03:15 | 42.47480 | -2.37282 | 27991 ft | 501 kts | 103° |
| 2026-05-05 03:15 | 42.46907 | -2.32625 | 27998 ft | 501 kts | 103° |
| 2026-05-05 03:16 | 42.46332 | -2.27974 | 27965 ft | 501 kts | 103° |
| 2026-05-05 03:16 | 42.45757 | -2.23333 | 27990 ft | 500 kts | 103° |
| 2026-05-05 03:16 | 42.45180 | -2.18689 | 27986 ft | 500 kts | 103° |
| 2026-05-05 03:16 | 42.44601 | -2.14048 | 27996 ft | 499 kts | 103° |
| 2026-05-05 03:17 | 42.44020 | -2.09416 | 27999 ft | 499 kts | 103° |
| 2026-05-05 03:17 | 42.43439 | -2.04786 | 27997 ft | 499 kts | 103° |
| 2026-05-05 03:17 | 42.42856 | -2.00161 | 27990 ft | 498 kts | 103° |
| 2026-05-05 03:18 | 42.41883 | -1.92484 | 27994 ft | 498 kts | 103° |
| 2026-05-05 03:18 | 42.41296 | -1.87868 | 27983 ft | 497 kts | 104° |
| 2026-05-05 03:18 | 42.40708 | -1.83257 | 27989 ft | 497 kts | 104° |
| 2026-05-05 03:18 | 42.40117 | -1.78646 | 27994 ft | 497 kts | 104° |
| 2026-05-05 03:19 | 42.38735 | -1.67914 | 27986 ft | 499 kts | 104° |
| 2026-05-05 03:19 | 42.38330 | -1.64788 | 27994 ft | 499 kts | 104° |
| 2026-05-05 03:19 | 42.37729 | -1.60160 | 28002 ft | 501 kts | 104° |
| 2026-05-05 03:20 | 42.36514 | -1.50851 | 27976 ft | 504 kts | 104° |
| 2026-05-05 03:20 | 42.35903 | -1.46190 | 27990 ft | 504 kts | 104° |
| 2026-05-05 03:20 | 42.35289 | -1.41519 | 27994 ft | 505 kts | 104° |
| 2026-05-05 03:21 | 42.34672 | -1.36838 | 28000 ft | 506 kts | 104° |
| 2026-05-05 03:21 | 42.34052 | -1.32151 | 27994 ft | 507 kts | 104° |
| 2026-05-05 03:21 | 42.33430 | -1.27465 | 28000 ft | 507 kts | 104° |
| 2026-05-05 03:21 | 42.32804 | -1.22760 | 27995 ft | 508 kts | 104° |
| 2026-05-05 03:22 | 42.32176 | -1.18062 | 27996 ft | 508 kts | 104° |
| 2026-05-05 03:22 | 42.31547 | -1.13365 | 27964 ft | 508 kts | 105° |
| 2026-05-05 03:22 | 42.30915 | -1.08667 | 27996 ft | 507 kts | 105° |
| 2026-05-05 03:22 | 42.30291 | -1.04042 | 27984 ft | 507 kts | 105° |
| 2026-05-05 03:23 | 42.29020 | -0.94673 | 27990 ft | 507 kts | 105° |
| 2026-05-05 03:23 | 42.28381 | -0.89981 | 27997 ft | 507 kts | 105° |
| 2026-05-05 03:23 | 42.27740 | -0.85292 | 27992 ft | 507 kts | 105° |
| 2026-05-05 03:24 | 42.27099 | -0.80615 | 27996 ft | 507 kts | 105° |
| 2026-05-05 03:24 | 42.26455 | -0.75935 | 27960 ft | 507 kts | 105° |
| 2026-05-05 03:24 | 42.25811 | -0.71263 | 27989 ft | 506 kts | 105° |
| 2026-05-05 03:24 | 42.25165 | -0.66597 | 28003 ft | 506 kts | 105° |
| 2026-05-05 03:25 | 42.23865 | -0.57249 | 27995 ft | 507 kts | 105° |
| 2026-05-05 03:25 | 42.22556 | -0.47901 | 27992 ft | 507 kts | 105° |
| 2026-05-05 03:26 | 42.21898 | -0.43224 | 27987 ft | 508 kts | 105° |
| 2026-05-05 03:26 | 42.21238 | -0.38541 | 27995 ft | 508 kts | 105° |
| 2026-05-05 03:26 | 42.20575 | -0.33857 | 27999 ft | 508 kts | 106° |
| 2026-05-05 03:26 | 42.19912 | -0.29179 | 28000 ft | 508 kts | 106° |
| 2026-05-05 03:27 | 42.19245 | -0.24495 | 27965 ft | 509 kts | 106° |
| 2026-05-05 03:27 | 42.18576 | -0.19804 | 27988 ft | 509 kts | 106° |
| 2026-05-05 03:27 | 42.17903 | -0.15116 | 27993 ft | 510 kts | 106° |
| 2026-05-05 03:27 | 42.17227 | -0.10410 | 28001 ft | 512 kts | 106° |
| 2026-05-05 03:28 | 42.16548 | -0.05697 | 28000 ft | 513 kts | 106° |
| 2026-05-05 03:28 | 42.15864 | -0.00969 | 27986 ft | 514 kts | 106° |
| 2026-05-05 03:28 | 42.15179 | 0.03758 | 27977 ft | 514 kts | 107° |
| 2026-05-05 03:28 | 42.14501 | 0.08424 | 27982 ft | 515 kts | 107° |
| 2026-05-05 03:29 | 42.13801 | 0.13224 | 27985 ft | 516 kts | 107° |
| 2026-05-05 03:29 | 42.13117 | 0.17898 | 27980 ft | 516 kts | 107° |
| 2026-05-05 03:29 | 42.12419 | 0.22653 | 27974 ft | 516 kts | 107° |
| 2026-05-05 03:29 | 42.11722 | 0.27393 | 27986 ft | 516 kts | 107° |
| 2026-05-05 03:30 | 42.11022 | 0.32135 | 27979 ft | 516 kts | 107° |
| 2026-05-05 03:30 | 42.10322 | 0.36869 | 27978 ft | 516 kts | 107° |
| 2026-05-05 03:30 | 42.09619 | 0.41608 | 27965 ft | 515 kts | 107° |
| 2026-05-05 03:30 | 42.08914 | 0.46336 | 27974 ft | 515 kts | 107° |
| 2026-05-05 03:31 | 42.08207 | 0.51067 | 27974 ft | 515 kts | 107° |
| 2026-05-05 03:31 | 42.07501 | 0.55783 | 27980 ft | 515 kts | 107° |
| 2026-05-05 03:31 | 42.06791 | 0.60501 | 27985 ft | 515 kts | 107° |
| 2026-05-05 03:31 | 42.06079 | 0.65223 | 27991 ft | 515 kts | 107° |
| 2026-05-05 03:32 | 42.05364 | 0.69948 | 27988 ft | 515 kts | 107° |
| 2026-05-05 03:32 | 42.04647 | 0.74674 | 27978 ft | 516 kts | 107° |
| 2026-05-05 03:32 | 42.03927 | 0.79410 | 27941 ft | 516 kts | 107° |
| 2026-05-05 03:32 | 42.03206 | 0.84135 | 27972 ft | 516 kts | 107° |
| 2026-05-05 03:33 | 42.02484 | 0.88861 | 27963 ft | 516 kts | 107° |
| 2026-05-05 03:33 | 42.01760 | 0.93574 | 27988 ft | 516 kts | 107° |
| 2026-05-05 03:33 | 42.01033 | 0.98297 | 27977 ft | 516 kts | 107° |
| 2026-05-05 03:33 | 42.00305 | 1.03024 | 27986 ft | 516 kts | 107° |
| 2026-05-05 03:34 | 41.99576 | 1.07741 | 27992 ft | 516 kts | 107° |
| 2026-05-05 03:34 | 41.98844 | 1.12460 | 27991 ft | 516 kts | 107° |
| 2026-05-05 03:34 | 41.98110 | 1.17177 | 27935 ft | 515 kts | 107° |
| 2026-05-05 03:34 | 41.97375 | 1.21887 | 27969 ft | 515 kts | 107° |
| 2026-05-05 03:35 | 41.95894 | 1.31327 | 27483 ft | 522 kts | 108° |
| 2026-05-05 03:35 | 41.95140 | 1.36098 | 26619 ft | 521 kts | 107° |
| 2026-05-05 03:35 | 41.94390 | 1.40861 | 25681 ft | 520 kts | 107° |
| 2026-05-05 03:36 | 41.93641 | 1.45602 | 24799 ft | 518 kts | 107° |
| 2026-05-05 03:36 | 41.92910 | 1.50225 | 24275 ft | 506 kts | 107° |
| 2026-05-05 03:36 | 41.92181 | 1.54828 | 23512 ft | 501 kts | 107° |
| 2026-05-05 03:36 | 41.91455 | 1.59384 | 22798 ft | 494 kts | 107° |
| 2026-05-05 03:37 | 41.90739 | 1.63859 | 21894 ft | 490 kts | 107° |
| 2026-05-05 03:37 | 41.90030 | 1.68281 | 21294 ft | 480 kts | 107° |
| 2026-05-05 03:37 | 41.89327 | 1.72645 | 20521 ft | 475 kts | 106° |
| 2026-05-05 03:37 | 41.88631 | 1.76954 | 19848 ft | 469 kts | 106° |
| 2026-05-05 03:38 | 41.87943 | 1.81204 | 19182 ft | 464 kts | 106° |
| 2026-05-05 03:38 | 41.87261 | 1.85406 | 18522 ft | 458 kts | 106° |
| 2026-05-05 03:38 | 41.86585 | 1.89562 | 17826 ft | 453 kts | 106° |
| 2026-05-05 03:38 | 41.85916 | 1.93666 | 17088 ft | 448 kts | 106° |
| 2026-05-05 03:39 | 41.85256 | 1.97713 | 16449 ft | 441 kts | 105° |
| 2026-05-05 03:39 | 41.84603 | 2.01709 | 15797 ft | 436 kts | 105° |
| 2026-05-05 03:39 | 41.83967 | 2.05663 | 15154 ft | 433 kts | 103° |
| 2026-05-05 03:39 | 41.83882 | 2.09672 | 14715 ft | 430 kts | 83° |
| 2026-05-05 03:40 | 41.84449 | 2.13572 | 14438 ft | 423 kts | 81° |
| 2026-05-05 03:40 | 41.84999 | 2.17482 | 14110 ft | 431 kts | 81° |
| 2026-05-05 03:40 | 41.85523 | 2.21451 | 13763 ft | 433 kts | 82° |
| 2026-05-05 03:40 | 41.86031 | 2.25419 | 13404 ft | 430 kts | 82° |
| 2026-05-05 03:41 | 41.86529 | 2.29358 | 13032 ft | 426 kts | 82° |
| 2026-05-05 03:41 | 41.87019 | 2.33259 | 12695 ft | 422 kts | 82° |
| 2026-05-05 03:41 | 41.87504 | 2.37127 | 12371 ft | 419 kts | 82° |
| 2026-05-05 03:41 | 41.87985 | 2.40958 | 12050 ft | 412 kts | 82° |
| 2026-05-05 03:42 | 41.88453 | 2.44691 | 11727 ft | 401 kts | 82° |
| 2026-05-05 03:42 | 41.88908 | 2.48332 | 11427 ft | 390 kts | 82° |
| 2026-05-05 03:42 | 41.89381 | 2.51830 | 11138 ft | 381 kts | 80° |
| 2026-05-05 03:42 | 41.89901 | 2.55280 | 10855 ft | 373 kts | 79° |
| 2026-05-05 03:43 | 41.90413 | 2.58653 | 10559 ft | 365 kts | 79° |
| 2026-05-05 03:43 | 41.90904 | 2.61957 | 10296 ft | 357 kts | 80° |
| 2026-05-05 03:43 | 41.91381 | 2.65197 | 10018 ft | 350 kts | 80° |
| 2026-05-05 03:43 | 41.91844 | 2.68369 | 9888 ft | 339 kts | 79° |
| 2026-05-05 03:44 | 41.92288 | 2.71413 | 9883 ft | 325 kts | 80° |
| 2026-05-05 03:44 | 41.92617 | 2.74348 | 9831 ft | 312 kts | 92° |
| 2026-05-05 03:44 | 41.92168 | 2.77096 | 9736 ft | 295 kts | 118° |
| 2026-05-05 03:44 | 41.91078 | 2.79357 | 9511 ft | 284 kts | 138° |
| 2026-05-05 03:45 | 41.89616 | 2.81104 | 9202 ft | 280 kts | 145° |
| 2026-05-05 03:45 | 41.88093 | 2.82736 | 8872 ft | 280 kts | 146° |
| 2026-05-05 03:45 | 41.86569 | 2.84349 | 8581 ft | 279 kts | 146° |
| 2026-05-05 03:45 | 41.85052 | 2.85961 | 8305 ft | 278 kts | 146° |
| 2026-05-05 03:46 | 41.83544 | 2.87574 | 8019 ft | 277 kts | 146° |
| 2026-05-05 03:46 | 41.82043 | 2.89187 | 7735 ft | 276 kts | 145° |
| 2026-05-05 03:46 | 41.80550 | 2.90797 | 7507 ft | 272 kts | 145° |
| 2026-05-05 03:46 | 41.79118 | 2.92346 | 7464 ft | 257 kts | 146° |
| 2026-05-05 03:47 | 41.77766 | 2.93808 | 7358 ft | 243 kts | 146° |
| 2026-05-05 03:47 | 41.76481 | 2.95201 | 7228 ft | 232 kts | 146° |
| 2026-05-05 03:47 | 41.75231 | 2.96538 | 6891 ft | 230 kts | 146° |
| 2026-05-05 03:47 | 41.73895 | 2.97635 | 6562 ft | 220 kts | 172° |
| 2026-05-05 03:48 | 41.72463 | 2.97544 | 6351 ft | 201 kts | 206° |
| 2026-05-05 03:48 | 41.71291 | 2.96589 | 6186 ft | 196 kts | 227° |
| 2026-05-05 03:48 | 41.70506 | 2.95170 | 6011 ft | 186 kts | 243° |
| 2026-05-05 03:48 | 41.69899 | 2.93696 | 5874 ft | 178 kts | 242° |
| 2026-05-05 03:49 | 41.69301 | 2.92253 | 5757 ft | 177 kts | 242° |
| 2026-05-05 03:49 | 41.68701 | 2.90808 | 5606 ft | 178 kts | 242° |
| 2026-05-05 03:49 | 41.68100 | 2.89361 | 5466 ft | 178 kts | 242° |
| 2026-05-05 03:49 | 41.67498 | 2.87913 | 5329 ft | 178 kts | 242° |
| 2026-05-05 03:50 | 41.67040 | 2.86386 | 5170 ft | 178 kts | 263° |
| 2026-05-05 03:50 | 41.66951 | 2.84748 | 5064 ft | 176 kts | 264° |
| 2026-05-05 03:50 | 41.66835 | 2.83114 | 4931 ft | 177 kts | 263° |
| 2026-05-05 03:50 | 41.66715 | 2.81479 | 4797 ft | 177 kts | 263° |
| 2026-05-05 03:51 | 41.66594 | 2.79839 | 4654 ft | 177 kts | 263° |
| 2026-05-05 03:51 | 41.66473 | 2.78196 | 4524 ft | 178 kts | 263° |
| 2026-05-05 03:51 | 41.66351 | 2.76543 | 4379 ft | 179 kts | 264° |
| 2026-05-05 03:51 | 41.66229 | 2.74887 | 4247 ft | 180 kts | 264° |
| 2026-05-05 03:52 | 41.66238 | 2.73222 | 4094 ft | 182 kts | 286° |
| 2026-05-05 03:52 | 41.66997 | 2.71882 | 3980 ft | 185 kts | 320° |
| 2026-05-05 03:52 | 41.68070 | 2.70918 | 3839 ft | 187 kts | 324° |
| 2026-05-05 03:52 | 41.69176 | 2.69997 | 3697 ft | 188 kts | 325° |
| 2026-05-05 03:53 | 41.70319 | 2.69121 | 3545 ft | 191 kts | 337° |
| 2026-05-05 03:53 | 41.71631 | 2.69130 | 3437 ft | 194 kts | 17° |
| 2026-05-05 03:53 | 41.72950 | 2.69651 | 3251 ft | 200 kts | 12° |
| 2026-05-05 03:53 | 41.74279 | 2.70102 | 3098 ft | 195 kts | 13° |
| 2026-05-05 03:54 | 41.75576 | 2.70571 | 2936 ft | 191 kts | 15° |
| 2026-05-05 03:54 | 41.76839 | 2.71041 | 2780 ft | 185 kts | 15° |
| 2026-05-05 03:54 | 41.78031 | 2.71490 | 2630 ft | 172 kts | 16° |
| 2026-05-05 03:54 | 41.79180 | 2.71925 | 2533 ft | 172 kts | 16° |
| 2026-05-05 03:55 | 41.80319 | 2.72356 | 2348 ft | 172 kts | 16° |
| 2026-05-05 03:55 | 41.81440 | 2.72780 | 2102 ft | 164 kts | 17° |
| 2026-05-05 03:55 | 41.82509 | 2.73185 | 1862 ft | 157 kts | 17° |
| 2026-05-05 03:55 | 41.83551 | 2.73583 | 1603 ft | 156 kts | 17° |
| 2026-05-05 03:56 | 41.84591 | 2.73978 | 1392 ft | 154 kts | 16° |
| 2026-05-05 03:56 | 41.85612 | 2.74362 | 1251 ft | 151 kts | 16° |
| 2026-05-05 03:56 | 41.86624 | 2.74745 | 1055 ft | 151 kts | 16° |
| 2026-05-05 03:56 | 41.87629 | 2.75126 | 871 ft | 150 kts | 15° |
| 2026-05-05 03:57 | 41.88636 | 2.75490 | 676 ft | 150 kts | 16° |
| 2026-05-05 03:57 | 41.89649 | 2.75883 | 437 ft | 152 kts | 16° |
| 2026-05-05 03:57 | 41.90577 | 2.76251 | 457 ft | 123 kts | 15° |
| 2026-05-05 03:57 | 41.91148 | 2.76454 | 468 ft | 45 kts | 15° |
| 2026-05-05 03:58 | 41.91449 | 2.76570 | 474 ft | 37 kts | 16° |
| 2026-05-05 03:58 | 41.91528 | 2.76667 | 475 ft | 15 kts | 109° |
| 2026-05-05 03:58 | 41.91436 | 2.76743 | 467 ft | 17 kts | 152° |
| 2026-05-05 03:58 | 41.91325 | 2.76753 | 465 ft | 17 kts | 195° |
| 2026-05-05 03:59 | 41.91215 | 2.76713 | 464 ft | 16 kts | 195° |
| 2026-05-05 03:59 | 41.91110 | 2.76673 | 463 ft | 15 kts | 195° |
| 2026-05-05 03:59 | 41.91007 | 2.76634 | 462 ft | 15 kts | 195° |
| 2026-05-05 03:59 | 41.90901 | 2.76594 | 458 ft | 17 kts | 195° |
| 2026-05-05 04:00 | 41.90773 | 2.76544 | 452 ft | 21 kts | 196° |
| 2026-05-05 04:00 | 41.90620 | 2.76486 | 430 ft | 25 kts | 196° |
| 2026-05-05 04:00 | 41.90451 | 2.76421 | 440 ft | 25 kts | 196° |
| 2026-05-05 04:00 | 41.90328 | 2.76420 | 430 ft | 16 kts | 121° |
| 2026-05-05 04:01 | 41.90318 | 2.76463 | 426 ft | 3 kts | 104° |
| 2026-05-05 04:01 | 41.90298 | 2.76476 | 430 ft | 4 kts | 202° |
| 2026-05-05 04:01 | 41.90268 | 2.76452 | 424 ft | 7 kts | 206° |
| 2026-05-05 04:01 | 41.90201 | 2.76426 | 419 ft | 14 kts | 194° |
| 2026-05-05 04:02 | 41.90170 | 2.76428 | 425 ft | 4 kts | 132° |
| 2026-05-05 04:02 | 41.90151 | 2.76479 | 423 ft | 1 kts | 139° |
| 2026-05-05 04:02 | 41.90115 | 2.76487 | 427 ft | 7 kts | 165° |
| 2026-05-05 04:02 | 41.90098 | 2.76526 | 426 ft | 1 kts | 105° |
| 2026-05-05 04:03 | 41.90094 | 2.76546 | 422 ft | 3 kts | 104° |
| 2026-05-05 04:03 | 41.90093 | 2.76555 | 420 ft | 0 kts | 105° |
| 2026-05-05 04:03 | 41.90092 | 2.76555 | 420 ft | 0 kts | 105° |